createdAt,value
2019-03-09T00:03:10.628Z,1.76
2019-03-09T00:08:19.657Z,1.72
2019-03-09T00:13:28.654Z,1.53
2019-03-09T00:18:37.682Z,2.17
2019-03-09T00:23:46.677Z,1.58
2019-03-09T00:28:55.666Z,1.56
2019-03-09T00:34:04.671Z,1.39
2019-03-09T00:39:13.650Z,1.44
2019-03-09T00:44:22.654Z,1.85
2019-03-09T00:49:31.643Z,1.99
2019-03-09T00:54:40.814Z,2.40
2019-03-09T00:59:49.803Z,3.09
2019-03-09T01:04:58.921Z,2.19
2019-03-09T01:10:07.926Z,2.82
2019-03-09T01:15:16.995Z,2.40
2019-03-09T01:20:28.722Z,2.37
2019-03-09T01:25:27.733Z,2.60
2019-03-09T01:30:36.722Z,2.68
2019-03-09T01:35:45.729Z,2.42
2019-03-09T01:40:54.778Z,3.13
2019-03-09T01:46:03.770Z,2.67
2019-03-09T01:51:12.802Z,1.95
2019-03-09T01:56:21.805Z,2.37
2019-03-09T02:01:30.791Z,3.15
2019-03-09T02:06:39.778Z,2.74
2019-03-09T02:11:48.842Z,2.91
2019-03-09T02:16:57.831Z,4.87
2019-03-09T02:22:06.821Z,4.51
2019-03-09T02:27:15.821Z,4.74
2019-03-09T02:32:24.818Z,6.34
2019-03-09T02:37:33.889Z,6.49
2019-03-09T02:42:42.862Z,10.41
2019-03-09T02:47:51.866Z,8.08
2019-03-09T02:53:00.845Z,10.61
2019-03-09T02:58:09.919Z,8.20
2019-03-09T03:03:18.905Z,7.70
2019-03-09T03:08:28.166Z,6.45
2019-03-09T03:13:37.166Z,7.76
2019-03-09T03:18:46.143Z,6.89
2019-03-09T03:23:55.167Z,6.15
2019-03-09T03:29:04.326Z,6.10
2019-03-09T03:34:13.319Z,5.92
2019-03-09T03:39:22.366Z,7.01
2019-03-09T03:44:31.356Z,5.69
2019-03-09T03:49:40.362Z,5.00
2019-03-09T03:54:49.359Z,5.30
2019-03-09T03:59:58.411Z,5.35
2019-03-09T04:05:07.405Z,5.27
2019-03-09T04:10:16.461Z,5.53
2019-03-09T04:15:25.447Z,4.75
2019-03-09T04:20:34.402Z,4.47
2019-03-09T04:25:43.461Z,4.55
2019-03-09T04:30:52.376Z,5.27
2019-03-09T04:36:01.322Z,3.63
2019-03-09T04:41:10.263Z,2.91
2019-03-09T04:46:19.274Z,2.90
2019-03-09T04:51:28.239Z,2.82
2019-03-09T04:56:37.190Z,2.75
2019-03-09T05:01:46.146Z,2.78
2019-03-09T05:06:55.115Z,2.90
2019-03-09T05:12:04.054Z,2.57
2019-03-09T05:17:13.074Z,3.49
2019-03-09T05:22:22.024Z,3.31
2019-03-09T05:27:31.198Z,2.99
2019-03-09T05:32:40.138Z,3.31
2019-03-09T05:37:49.102Z,3.26
2019-03-09T05:42:58.009Z,4.36
2019-03-09T05:48:06.974Z,3.23
2019-03-09T05:53:15.981Z,3.15
2019-03-09T05:58:24.937Z,2.98
2019-03-09T06:03:33.930Z,2.79
2019-03-09T06:08:42.914Z,3.33
2019-03-09T06:13:51.905Z,2.11
2019-03-09T06:19:00.894Z,2.14
2019-03-09T06:24:09.833Z,1.97
2019-03-09T06:29:18.792Z,2.37
2019-03-09T06:34:27.798Z,2.34
2019-03-09T06:39:36.717Z,3.28
2019-03-09T06:44:45.739Z,3.23
2019-03-09T06:49:54.712Z,2.99
2019-03-09T06:55:03.769Z,4.09
2019-03-09T07:00:12.713Z,4.07
2019-03-09T07:05:21.725Z,4.29
2019-03-09T07:10:30.666Z,3.94
2019-03-09T07:15:39.598Z,3.71
2019-03-09T07:20:48.546Z,3.34
2019-03-09T07:25:57.534Z,3.31
2019-03-09T07:31:06.494Z,2.72
2019-03-09T07:36:15.474Z,3.22
2019-03-09T07:41:24.414Z,3.00
2019-03-09T07:46:33.370Z,3.14
2019-03-09T07:51:42.333Z,3.45
2019-03-09T07:56:51.300Z,3.66
2019-03-09T08:02:00.275Z,3.74
2019-03-09T08:07:09.234Z,3.70
2019-03-09T08:12:18.182Z,3.50
2019-03-09T08:17:27.120Z,3.93
2019-03-09T08:22:36.102Z,4.36
2019-03-09T08:27:45.031Z,4.32
2019-03-09T08:32:53.974Z,4.52
2019-03-09T08:38:02.969Z,4.45
2019-03-09T08:43:11.914Z,4.12
2019-03-09T08:48:20.922Z,3.86
2019-03-09T08:53:31.271Z,3.86
2019-03-09T08:58:38.445Z,3.99
2019-03-09T09:03:47.471Z,3.93
2019-03-09T09:08:56.459Z,4.44
2019-03-09T09:14:05.450Z,5.65
2019-03-09T09:19:14.474Z,5.65
2019-03-09T09:24:23.450Z,5.50
2019-03-09T09:29:32.467Z,5.28
2019-03-09T09:34:41.394Z,5.29
2019-03-09T09:39:50.451Z,5.61
2019-03-09T09:44:59.418Z,5.61
2019-03-09T09:50:08.427Z,4.44
2019-03-09T09:55:17.426Z,3.58
2019-03-09T10:00:26.409Z,3.14
2019-03-09T10:05:35.702Z,2.70
2019-03-09T10:10:44.618Z,2.72
2019-03-09T10:15:53.642Z,2.55
2019-03-09T10:21:02.623Z,3.36
2019-03-09T10:26:11.630Z,2.29
2019-03-09T10:31:20.642Z,2.69
2019-03-09T10:36:29.655Z,2.40
2019-03-09T10:41:38.638Z,2.71
2019-03-09T10:46:47.660Z,2.54
2019-03-09T10:51:56.658Z,2.27
2019-03-09T10:57:05.683Z,2.81
2019-03-09T11:02:14.699Z,2.63
2019-03-09T11:07:23.770Z,2.61
2019-03-09T11:12:32.777Z,2.68
2019-03-09T11:17:41.774Z,2.74
2019-03-09T11:22:50.765Z,2.87
2019-03-09T11:27:59.770Z,2.67
2019-03-09T11:33:08.769Z,3.11
2019-03-09T11:38:17.774Z,3.21
2019-03-09T11:43:26.734Z,4.02
2019-03-09T11:48:35.785Z,3.83
2019-03-09T11:53:44.779Z,3.06
2019-03-09T11:58:53.822Z,3.43
2019-03-09T12:04:02.763Z,3.46
2019-03-09T12:09:11.834Z,3.21
2019-03-09T12:14:20.814Z,3.74
2019-03-09T12:19:29.839Z,3.44
2019-03-09T12:24:38.770Z,3.05
2019-03-09T12:29:47.782Z,3.51
2019-03-09T12:34:56.790Z,4.15
2019-03-09T12:40:05.791Z,4.29
2019-03-09T12:45:14.789Z,3.95
2019-03-09T12:50:23.790Z,3.99
2019-03-09T12:55:32.803Z,3.70
2019-03-09T13:00:42.794Z,3.62
2019-03-09T13:05:51.850Z,3.82
2019-03-09T13:11:00.846Z,4.10
2019-03-09T13:16:09.870Z,4.43
2019-03-09T13:21:18.886Z,4.16
2019-03-09T13:26:27.882Z,3.90
2019-03-09T13:31:36.898Z,4.52
2019-03-09T13:36:45.859Z,4.05
2019-03-09T13:41:54.826Z,4.21
2019-03-09T13:47:04.422Z,4.97
2019-03-09T13:52:12.415Z,3.93
2019-03-09T13:57:21.407Z,2.95
2019-03-09T14:02:30.444Z,3.15
2019-03-09T14:07:39.421Z,3.31
2019-03-09T14:12:48.434Z,2.87
2019-03-09T14:17:57.460Z,2.95
2019-03-09T14:23:06.438Z,2.45
2019-03-09T14:28:15.454Z,1.99
2019-03-09T14:33:24.446Z,2.65
2019-03-09T14:38:35.354Z,2.52
2019-03-09T14:43:42.266Z,2.76
2019-03-09T14:48:51.292Z,1.61
2019-03-09T14:54:00.298Z,2.37
2019-03-09T14:59:09.345Z,2.04
2019-03-09T15:04:18.379Z,2.17
2019-03-09T15:09:27.390Z,2.32
2019-03-09T15:14:36.414Z,1.91
2019-03-09T15:19:45.410Z,1.98
2019-03-09T15:24:54.886Z,2.04
2019-03-09T15:30:03.863Z,2.89
2019-03-09T15:35:12.949Z,1.60
2019-03-09T15:40:21.928Z,2.29
2019-03-09T15:45:31.231Z,1.72
2019-03-09T15:51:09.462Z,2.42
2019-03-09T15:55:48.537Z,2.09
2019-03-09T16:01:04.474Z,2.41
2019-03-09T16:06:03.474Z,2.33
2019-03-09T16:11:12.534Z,1.97
2019-03-09T16:16:21.534Z,2.42
2019-03-09T16:21:30.751Z,1.72
2019-03-09T16:26:39.838Z,1.75
2019-03-09T16:31:48.954Z,2.09
2019-03-09T16:36:58.022Z,2.45
2019-03-09T16:42:06.974Z,2.04
2019-03-09T16:47:15.982Z,2.01
2019-03-09T16:52:25.057Z,2.03
2019-03-09T16:57:33.968Z,2.00
2019-03-09T17:02:42.938Z,1.79
2019-03-09T17:07:51.914Z,1.92
2019-03-09T17:13:00.843Z,2.58
2019-03-09T17:18:09.810Z,2.25
2019-03-09T17:23:18.746Z,2.31
2019-03-09T17:28:27.682Z,2.44
2019-03-09T17:33:36.601Z,2.20
2019-03-09T17:38:45.542Z,2.19
2019-03-09T17:43:54.471Z,1.71
2019-03-09T17:49:03.479Z,2.15
2019-03-09T17:54:12.402Z,1.63
2019-03-09T17:59:21.427Z,1.26
2019-03-09T18:04:30.358Z,1.08
2019-03-09T18:09:39.312Z,1.20
2019-03-09T18:14:48.304Z,1.20
2019-03-09T18:19:57.322Z,0.91
2019-03-09T18:25:06.311Z,0.91
2019-03-09T18:30:15.383Z,0.80
2019-03-09T18:35:24.362Z,0.88
2019-03-09T18:40:33.426Z,1.03
2019-03-09T18:45:42.430Z,0.92
2019-03-09T18:50:51.444Z,1.03
2019-03-09T18:56:00.431Z,0.80
2019-03-09T19:01:09.454Z,1.13
2019-03-09T19:06:18.447Z,0.92
2019-03-09T19:11:27.465Z,0.90
2019-03-09T19:16:36.449Z,1.10
2019-03-09T19:21:45.450Z,1.07
2019-03-09T19:26:54.437Z,1.15
2019-03-09T19:32:03.446Z,1.19
2019-03-09T19:37:12.379Z,1.37
2019-03-09T19:42:21.382Z,1.33
2019-03-09T19:47:30.384Z,1.41
2019-03-09T19:52:39.423Z,1.38
2019-03-09T19:57:48.383Z,1.18
2019-03-09T20:02:57.378Z,1.42
2019-03-09T20:08:06.450Z,1.26
2019-03-09T20:13:15.439Z,1.63
2019-03-09T20:18:24.618Z,1.28
2019-03-09T20:23:33.610Z,1.47
2019-03-09T20:28:42.741Z,1.38
2019-03-09T20:33:51.722Z,1.31
2019-03-09T20:39:00.830Z,1.28
2019-03-09T20:44:09.814Z,1.26
2019-03-09T20:49:18.819Z,1.27
2019-03-09T20:54:27.822Z,1.49
2019-03-09T20:59:36.771Z,1.31
2019-03-09T21:04:45.742Z,1.58
2019-03-09T21:09:54.698Z,1.90
2019-03-09T21:15:03.763Z,1.73
2019-03-09T21:20:14.828Z,1.80
2019-03-09T21:25:21.202Z,1.90
2019-03-09T21:30:30.155Z,1.68
2019-03-09T21:35:39.478Z,1.81
2019-03-09T21:40:48.495Z,1.88
2019-03-09T21:45:57.442Z,1.95
2019-03-09T21:51:06.556Z,1.81
2019-03-09T21:56:15.487Z,1.96
2019-03-09T22:01:24.695Z,1.80
2019-03-09T22:06:33.656Z,1.94
2019-03-09T22:11:42.626Z,1.98
2019-03-09T22:16:56.541Z,2.06
2019-03-09T22:22:00.107Z,1.73
2019-03-09T22:27:09.043Z,1.86
2019-03-09T22:32:19.601Z,2.16
2019-03-09T22:37:26.518Z,1.86
2019-03-09T22:42:35.534Z,2.00
2019-03-09T22:47:44.541Z,1.96
2019-03-09T22:52:53.586Z,1.95
2019-03-09T22:58:02.558Z,2.11
2019-03-09T23:03:11.574Z,2.13
2019-03-09T23:08:20.530Z,2.27
2019-03-09T23:13:29.523Z,2.09
2019-03-09T23:18:38.774Z,2.41
2019-03-09T23:23:47.754Z,2.58
2019-03-09T23:28:56.834Z,2.06
2019-03-09T23:34:05.820Z,2.61
2019-03-09T23:39:15.178Z,2.47
2019-03-09T23:44:24.137Z,2.48
2019-03-09T23:49:33.134Z,2.12
2019-03-09T23:54:42.180Z,2.45
2019-03-09T23:59:51.183Z,2.11
